This is the latest recevied weather packets stored in our database for station/object KB9HUO. If no packets are shown the sender has not sent any weather packets the latest 1 day(s).
| Time | Temp. | Humidity | Pressure | Rain* | Wind** | Luminosity | Snow |
|---|---|---|---|---|---|---|---|
| 1778092502 | 14.44° C | 59% | 1015.5 hPa | 0 mm | - | 243 W/m² | - |
| 1778092199 | 14.44° C | 59% | 1015.3 hPa | 0 mm | - | 228 W/m² | - |
| 1778090078 | 13.89° C | 61% | 1014.9 hPa | 0 mm | - | 146 W/m² | - |
| 1778089169 | 14.44° C | 59% | 1015 hPa | 0 mm | - | 247 W/m² | - |
| 1778088866 | 14.44° C | 57% | 1015.2 hPa | 0 mm | - | 278 W/m² | - |
| 1778088563 | 14.44° C | 64% | 1015.3 hPa | 0 mm | - | 312 W/m² | - |
| 1778088260 | 14.44° C | 60% | 1015.3 hPa | 0 mm | - | 349 W/m² | - |
| 1778087957 | 13.89° C | 61% | 1015.4 hPa | 0 mm | - | 310 W/m² | - |
| 1778086141 | 13.33° C | 62% | 1015.4 hPa | 0 mm | - | 193 W/m² | - |
| 1778084925 | 13.33° C | 64% | 1015.6 hPa | 0 mm | - | 231 W/m² | - |
| 1778083710 | 13.33° C | 65% | 1015.5 hPa | 0 mm | - | 174 W/m² | - |
| 1778082801 | 13.33° C | 68% | 1015.4 hPa | 0 mm | - | 281 W/m² | - |
| 1778081371 | 12.22° C | 71% | 1015.4 hPa | 0 mm | - | 248 W/m² | - |
| 1778080766 | 11.67° C | 73% | 1015.2 hPa | 0 mm | - | 230 W/m² | - |
| 1778079856 | 11.67° C | 73% | 1015.2 hPa | 0 mm | - | 241 W/m² | - |
| 1778077737 | 11.11° C | 77% | 1015 hPa | 0 mm | - | 198 W/m² | - |
| 1778076830 | 10.56° C | 77% | 1014.8 hPa | 0 mm | - | 179 W/m² | - |
| 1778075315 | 10.56° C | 77% | 1014.6 hPa | 0 mm | - | 172 W/m² | - |
| 1778074405 | 10° C | 79% | 1014.2 hPa | 0 mm | - | 115 W/m² | - |
| 1778074102 | 10° C | 82% | 1014.1 hPa | 0 mm | - | 109 W/m² | - |
| 1778073799 | 9.44° C | 81% | 1014.2 hPa | 0 mm | - | 95 W/m² | - |
| 1778073497 | 9.44° C | 80% | 1013.8 hPa | 0 mm | - | 104 W/m² | - |
| 1778072890 | 9.44° C | 81% | 1013.6 hPa | 0 mm | - | 102 W/m² | - |
| 1778071075 | 8.89° C | 87% | 1013.4 hPa | 0 mm | - | 49 W/m² | - |
| 1778070470 | 8.33° C | 88% | 1013.4 hPa | 0 mm | - | 59 W/m² | - |
* Rain latest hour (hover to see other rain measurements)
** Current wind speed in m/s (hover to see current wind gust speed)